Jessup, MD (20794)

7:04 PM EDT on September 21, 2014 (GMT -0400)
Heritage Woods | Change Station
CLOSE
Current Station
Personal Weather Station
Location: Jessup, MD
Elevation: 305 ft
Nearby Weather Stations

Elev 305 ft 39.16 °N, 76.82 °W | Updated 4 minutes ago

Partly Cloudy
Partly Cloudy
77.0 °F
Feels Like 79 °F
N
0.0
Wind Variable Wind from SSE
Gusts 0.0 mph

Today
High -- | Low -- °F
--% Chance of Precip.
Yesterday
High -- | Low -- °F
Precip. -- in
6:53 AM 7:05 PM
Waning Crescent, 5% visible
Pressure 29.68 in
Visibility 10.0 miles
Clouds Scattered Clouds 7000 ft
Heat Index 79 °F
Dew Point 66 °F
Humidity 70%
Rainfall 0.00 in
Snow Depth Not available.
UV 0 out of 12
Pollen 3.90 out of 12
Air Quality Not available.
Flu Activity Not available.
METAR KFME 212245Z AUTO 00000KT 10SM SCT070 23/19 A2968 RMK AO1

More Conditions Fewer Conditions

Pressure 29.68 in
Visibility 10.0 miles
Clouds Scattered Clouds 7000 ft
Heat Index 79 °F
Dew Point 66 °F
Humidity 70%
Rainfall 0.00 in
Snow Depth Not available.
UV 0 out of 12
Pollen 3.90 out of 12
Air Quality Not available.
Flu Activity Not available.
METAR KFME 212245Z AUTO 00000KT 10SM SCT070 23/19 A2968 RMK AO1

More Conditions Fewer Conditions

10-Day Weather Forecast

Almanac

Astronomy

Sep. 21, 2014 Rise Set
Actual Time 6:53 AM EDT 7:05 PM EDT
Civil Twilight 6:27 AM EDT 7:32 PM EDT
Nautical Twilight 5:55 AM EDT 8:03 PM EDT
Astronomical Twilight 5:24 AM EDT 8:35 PM EDT
Moon 4:26 AM EDT 5:40 PM EDT
Length of Visible Light 13h 05m
Length of Day
12h 11m
Tomorrow will be 2m 31s shorter.
Waning Crescent, 5% of the Moon is Illuminated
Today
Waning Crescent
Sep 24
New
Oct 1
First Quarter
Oct 8
Full
Oct 15
Last Quarter

Today's Extremes

State Highs State Lows

Community

WunderPhotos

Upload Photos

1,755,290 photos uploaded!

WunderBlogs® & News

Nearby

Snow Depth

Station Depth Elevation
No new snow has been reported.

Earthquake Activity

City Distance Mag. Time & Date
No recent earthquake activity has been reported nearby.
Minimum magnitude displayed is 2.5.

Coastal Water Temperatures

Place Temperature
Baltimore, MD 75.9 °F
Tolchester Beach, MD 75.0 °F
Washington, DC 75.0 °F

Nearby Weather Stations